Time;durP1;ratioP1;P1;durP2;ratioP2;P2;SDS_P1;SDS_P2;PMS_P1;PMS_P2;Temp;Humidity;BMP_temperature;BMP_pressure;BME280_temperature;BME280_humidity;BME280_pressure;Samples;Min_cycle;Max_cycle;Signal;HPM_P1;HPM_P2
2023/03/08 00:02:16;;;;;;;1999.90;999.90;;;0.90;99.90;;;;;;5075378;28;20432;-70
2023/03/08 00:04:44;;;;;;;1999.90;999.90;;;0.90;99.90;;;;;;5073760;28;20431;-70
2023/03/08 00:07:10;;;;;;;1999.90;999.90;;;0.80;99.90;;;;;;5079135;28;20435;-70
2023/03/08 00:09:37;;;;;;;1999.90;999.90;;;0.90;99.90;;;;;;5077809;28;20439;-70
2023/03/08 00:12:06;;;;;;;1999.90;999.90;;;1.00;99.90;;;;;;5074423;28;20871;-70
2023/03/08 00:14:32;;;;;;;1999.90;999.90;;;1.00;99.90;;;;;;5073788;28;20433;-68
2023/03/08 00:17:02;;;;;;;1999.90;999.90;;;1.10;99.90;;;;;;5072310;28;20427;-72
2023/03/08 00:19:28;;;;;;;1999.90;999.90;;;1.10;99.90;;;;;;5072775;28;20510;-72
2023/03/08 00:21:56;;;;;;;1999.90;999.90;;;1.00;99.90;;;;;;5073895;28;20432;-72
2023/03/08 00:24:23;;;;;;;1999.90;999.90;;;1.10;99.90;;;;;;5059489;28;20413;-72
2023/03/08 00:26:50;;;;;;;1999.90;999.90;;;1.00;99.90;;;;;;5068608;28;20434;-71
2023/03/08 00:29:17;;;;;;;1999.90;999.90;;;1.00;99.90;;;;;;5071722;28;20432;-72
2023/03/08 00:31:43;;;;;;;1999.90;999.90;;;1.10;99.90;;;;;;5071744;28;20506;-72
2023/03/08 00:34:10;;;;;;;1999.90;999.90;;;1.10;99.90;;;;;;5076718;28;20477;-71
2023/03/08 00:36:37;;;;;;;1999.90;999.90;;;1.10;99.90;;;;;;5075883;28;20477;-72
2023/03/08 00:39:05;;;;;;;1999.90;999.90;;;1.20;99.90;;;;;;5072679;28;20879;-72
2023/03/08 00:41:31;;;;;;;1999.90;999.90;;;1.20;99.90;;;;;;5068541;28;21178;-71
2023/03/08 00:43:58;;;;;;;1999.90;999.90;;;1.20;99.90;;;;;;5071442;28;20431;-76
2023/03/08 00:46:25;;;;;;;1999.90;999.90;;;1.20;99.90;;;;;;5072808;28;20916;-71
2023/03/08 00:48:52;;;;;;;1999.90;999.90;;;1.30;99.90;;;;;;5075241;28;20425;-72
2023/03/08 00:51:19;;;;;;;1999.90;999.90;;;1.20;99.90;;;;;;5072878;28;20477;-72
2023/03/08 00:53:47;;;;;;;1999.90;999.90;;;1.20;99.90;;;;;;5073105;28;20430;-72
2023/03/08 00:56:15;;;;;;;1999.90;999.90;;;1.10;99.90;;;;;;5072646;28;20431;-72
2023/03/08 00:58:42;;;;;;;1999.90;999.90;;;1.20;99.90;;;;;;5072310;28;20497;-70
2023/03/08 01:01:14;;;;;;;1999.90;999.90;;;1.10;99.90;;;;;;5071654;28;22353;-73
2023/03/08 01:03:41;;;;;;;1999.90;999.90;;;1.00;99.90;;;;;;5071845;28;20431;-71
2023/03/08 01:06:11;;;;;;;1999.90;999.90;;;1.00;99.90;;;;;;5081788;28;20509;-70
2023/03/08 01:08:38;;;;;;;1999.90;999.90;;;0.90;99.90;;;;;;5071774;28;20431;-71
2023/03/08 01:11:05;;;;;;;1999.90;999.90;;;0.90;99.90;;;;;;5077285;28;20423;-70
2023/03/08 01:13:35;;;;;;;1999.90;999.90;;;0.80;99.90;;;;;;5072361;28;20435;-71
2023/03/08 01:16:02;;;;;;;1999.90;999.90;;;0.80;99.90;;;;;;5071200;28;20513;-70
2023/03/08 01:18:29;;;;;;;1999.90;999.90;;;1.00;99.90;;;;;;5072090;28;20427;-71
2023/03/08 01:20:57;;;;;;;1999.90;999.90;;;0.70;99.90;;;;;;5074979;28;20548;-70
2023/03/08 01:23:24;;;;;;;1999.90;999.90;;;0.60;99.90;;;;;;5067191;28;20836;-71
2023/03/08 01:25:58;;;;;;;1999.90;999.90;;;0.90;99.90;;;;;;5074178;28;20434;-71
2023/03/08 01:28:24;;;;;;;1999.90;999.90;;;0.70;99.90;;;;;;5067979;28;20427;-71
2023/03/08 01:30:53;;;;;;;1999.90;999.90;;;1.00;99.90;;;;;;5071215;28;20435;-71
2023/03/08 01:33:20;;;;;;;1999.90;999.90;;;0.60;99.90;;;;;;5071818;28;20916;-71
2023/03/08 01:35:46;;;;;;;1999.90;999.90;;;0.90;99.90;;;;;;5071320;28;20866;-71
2023/03/08 01:38:13;;;;;;;1999.90;999.90;;;0.60;99.90;;;;;;5071978;28;20461;-72
2023/03/08 01:40:40;;;;;;;1999.90;999.90;;;0.50;99.90;;;;;;5075770;28;20452;-70
2023/03/08 01:43:21;;;;;;;1999.90;999.90;;;0.50;99.90;;;;;;5070929;28;20547;-71
2023/03/08 01:46:11;;;;;;;1999.90;999.90;;;0.40;99.90;;;;;;5071146;28;20427;-73
2023/03/08 01:48:41;;;;;;;1999.90;999.90;;;0.40;99.90;;;;;;5076918;28;20516;-72
2023/03/08 01:51:10;;;;;;;1999.90;999.90;;;0.60;99.90;;;;;;5072860;28;21084;-72
2023/03/08 01:53:39;;;;;;;1999.90;999.90;;;0.60;99.90;;;;;;5074315;28;20441;-71
2023/03/08 01:56:08;;;;;;;1999.90;999.90;;;0.60;99.90;;;;;;5070920;28;20431;-71
2023/03/08 01:58:35;;;;;;;1999.90;999.90;;;0.70;99.90;;;;;;5071673;28;20431;-71
2023/03/08 02:01:02;;;;;;;1999.90;999.90;;;1.20;99.90;;;;;;5071641;28;20427;-71
2023/03/08 02:03:30;;;;;;;1999.90;999.90;;;0.70;99.90;;;;;;5070862;28;20485;-72
2023/03/08 02:05:57;;;;;;;1999.90;999.90;;;1.00;99.90;;;;;;5070923;28;20447;-73
2023/03/08 02:08:24;;;;;;;1999.90;999.90;;;0.70;99.90;;;;;;5072299;28;20948;-71
2023/03/08 02:10:51;;;;;;;1999.90;999.90;;;0.90;99.90;;;;;;5070089;28;20512;-72
2023/03/08 02:13:20;;;;;;;1999.90;999.90;;;1.00;99.90;;;;;;5079701;28;20492;-72
2023/03/08 02:15:46;;;;;;;1999.90;999.90;;;1.10;99.90;;;;;;5069409;28;20488;-73
2023/03/08 02:18:13;;;;;;;1999.90;999.90;;;1.10;99.90;;;;;;5076265;28;20431;-73
2023/03/08 02:20:41;;;;;;;1999.90;999.90;;;1.10;99.90;;;;;;5070908;28;20485;-71
2023/03/08 02:23:10;;;;;;;1999.90;999.90;;;1.30;99.90;;;;;;5073480;28;20516;-71
2023/03/08 02:25:38;;;;;;;1999.90;999.90;;;1.50;99.90;;;;;;5071450;28;20506;-71
2023/03/08 02:28:05;;;;;;;1999.90;999.90;;;1.70;99.90;;;;;;5069744;28;20845;-71
2023/03/08 02:30:34;;;;;;;1999.90;999.90;;;1.60;99.90;;;;;;5071409;28;20435;-72
2023/03/08 02:33:01;;;;;;;1999.90;999.90;;;1.60;99.90;;;;;;5071845;28;20436;-72
2023/03/08 02:35:28;;;;;;;1999.90;999.90;;;1.70;99.90;;;;;;5067385;28;20428;-71
2023/03/08 02:37:55;;;;;;;1999.90;999.90;;;1.70;99.90;;;;;;5070412;28;20431;-70
2023/03/08 02:40:23;;;;;;;1999.90;999.90;;;1.60;99.90;;;;;;5069604;28;20431;-73
2023/03/08 02:42:50;;;;;;;1999.90;999.90;;;1.40;99.90;;;;;;5069770;28;20435;-71
2023/03/08 02:45:17;;;;;;;1999.90;999.90;;;1.30;99.90;;;;;;5074331;28;20435;-70
2023/03/08 02:47:43;;;;;;;1999.90;999.90;;;1.30;99.90;;;;;;5072400;28;20523;-72
2023/03/08 02:50:11;;;;;;;1999.90;999.90;;;1.30;99.90;;;;;;5072792;28;20489;-73
2023/03/08 02:52:37;;;;;;;1999.90;999.90;;;1.30;99.90;;;;;;5070108;28;20439;-71
2023/03/08 02:55:05;;;;;;;1999.90;999.90;;;1.30;99.90;;;;;;5071879;28;20528;-72
2023/03/08 02:57:32;;;;;;;1999.90;999.90;;;1.20;99.90;;;;;;5070929;28;20484;-71
2023/03/08 02:59:59;;;;;;;1999.90;999.90;;;1.20;99.90;;;;;;5069973;28;20485;-71
2023/03/08 03:02:26;;;;;;;1999.90;999.90;;;1.20;99.90;;;;;;5069722;28;20442;-71
2023/03/08 03:04:53;;;;;;;1999.90;999.90;;;1.40;99.90;;;;;;5069138;28;20430;-73
2023/03/08 03:07:19;;;;;;;1999.90;999.90;;;1.40;99.90;;;;;;5078063;28;20435;-72
2023/03/08 03:09:46;;;;;;;1999.90;999.90;;;1.60;99.90;;;;;;5073381;28;20966;-71
2023/03/08 03:12:13;;;;;;;1999.90;999.90;;;1.40;99.90;;;;;;5073277;28;20492;-72
2023/03/08 03:14:41;;;;;;;1999.90;999.90;;;1.40;99.90;;;;;;5073864;28;20457;-71
2023/03/08 03:17:07;;;;;;;1999.90;999.90;;;1.50;99.90;;;;;;5077611;28;20427;-72
2023/03/08 03:19:34;;;;;;;1999.90;999.90;;;1.40;99.90;;;;;;5074490;28;20427;-71
2023/03/08 03:22:00;;;;;;;1999.90;999.90;;;1.50;99.90;;;;;;5072292;28;20439;-70
2023/03/08 03:24:27;;;;;;;1999.90;999.90;;;1.40;99.90;;;;;;5073626;28;20431;-75
2023/03/08 03:26:54;;;;;;;1999.90;999.90;;;1.50;99.90;;;;;;5073067;28;20827;-71
2023/03/08 03:29:21;;;;;;;1999.90;999.90;;;1.50;99.90;;;;;;5072837;28;20463;-70
2023/03/08 03:31:49;;;;;;;1999.90;999.90;;;1.60;99.90;;;;;;5072491;28;20516;-69
2023/03/08 03:34:15;;;;;;;1999.90;999.90;;;1.50;99.90;;;;;;5073750;28;20431;-69
2023/03/08 03:36:42;;;;;;;1999.90;999.90;;;1.50;99.90;;;;;;5073430;28;20477;-69
2023/03/08 03:39:09;;;;;;;1999.90;999.90;;;1.60;99.90;;;;;;5071992;28;20473;-69
2023/03/08 03:41:36;;;;;;;1999.90;999.90;;;1.60;99.90;;;;;;5076254;28;20431;-74
2023/03/08 03:44:02;;;;;;;1999.90;999.90;;;1.80;99.90;;;;;;5074585;28;20844;-68
2023/03/08 03:46:29;;;;;;;1999.90;999.90;;;1.80;99.90;;;;;;5074055;28;20536;-69
2023/03/08 03:48:57;;;;;;;1999.90;999.90;;;1.70;99.90;;;;;;5072635;28;20913;-69
2023/03/08 03:51:24;;;;;;;1999.90;999.90;;;1.70;99.90;;;;;;5078220;28;20431;-71
2023/03/08 03:53:51;;;;;;;1999.90;999.90;;;1.70;99.90;;;;;;5071059;28;20571;-73
2023/03/08 03:56:20;;;;;;;1999.90;999.90;;;1.80;99.90;;;;;;5071909;28;20431;-71
2023/03/08 03:58:47;;;;;;;1999.90;999.90;;;1.70;99.90;;;;;;5072854;28;20459;-70
2023/03/08 04:01:16;;;;;;;1999.90;999.90;;;1.80;99.90;;;;;;5077264;28;20419;-74
2023/03/08 04:03:43;;;;;;;1999.90;999.90;;;2.00;99.90;;;;;;5072880;28;20427;-68
2023/03/08 04:06:13;;;;;;;1999.90;999.90;;;1.80;99.90;;;;;;5071498;28;20431;-71
2023/03/08 04:08:41;;;;;;;1999.90;999.90;;;1.70;99.90;;;;;;5074049;28;20580;-71
2023/03/08 04:11:09;;;;;;;1999.90;999.90;;;1.70;99.90;;;;;;5071829;28;20775;-72
2023/03/08 04:13:35;;;;;;;1999.90;999.90;;;1.60;99.90;;;;;;5075106;28;20435;-70
2023/03/08 04:16:09;;;;;;;1999.90;999.90;;;1.90;99.90;;;;;;5072298;28;20427;-71
2023/03/08 04:18:36;;;;;;;1999.90;999.90;;;1.80;99.90;;;;;;5071900;28;20518;-71
2023/03/08 04:21:03;;;;;;;1999.90;999.90;;;1.70;99.90;;;;;;5072115;28;20440;-72
2023/03/08 04:23:32;;;;;;;1999.90;999.90;;;1.60;99.90;;;;;;5073301;28;20428;-71
2023/03/08 04:25:58;;;;;;;1999.90;999.90;;;1.40;99.90;;;;;;5071967;28;20412;-73
2023/03/08 04:28:25;;;;;;;1999.90;999.90;;;1.50;99.90;;;;;;5061055;28;20431;-73
2023/03/08 04:30:52;;;;;;;1999.90;999.90;;;1.60;99.90;;;;;;5071665;28;20489;-69
2023/03/08 04:33:20;;;;;;;1999.90;999.90;;;1.40;99.90;;;;;;5071217;28;20477;-71
2023/03/08 04:35:47;;;;;;;1999.90;999.90;;;1.30;99.90;;;;;;5072950;28;20428;-71
2023/03/08 04:38:13;;;;;;;1999.90;999.90;;;1.20;99.90;;;;;;5072592;28;20431;-71
2023/03/08 04:43:28;;;;;;;1999.90;999.90;;;1.30;99.90;;;;;;5075748;28;20431;-70
2023/03/08 04:45:55;;;;;;;1999.90;999.90;;;1.20;99.90;;;;;;5070155;28;20432;-71
2023/03/08 04:48:21;;;;;;;1999.90;999.90;;;1.20;99.90;;;;;;5071492;28;20447;-69
2023/03/08 04:50:53;;;;;;;1999.90;999.90;;;1.20;99.90;;;;;;5074868;28;20441;-71
2023/03/08 04:53:19;;;;;;;1999.90;999.90;;;1.20;99.90;;;;;;5071838;28;20523;-68
2023/03/08 04:55:47;;;;;;;1999.90;999.90;;;1.10;99.90;;;;;;5072625;28;20423;-72
2023/03/08 04:58:14;;;;;;;1999.90;999.90;;;1.10;99.90;;;;;;5073217;28;20427;-71
2023/03/08 05:00:41;;;;;;;1999.90;999.90;;;1.10;99.90;;;;;;5071712;28;20466;-72
2023/03/08 05:03:09;;;;;;;1999.90;999.90;;;1.10;99.90;;;;;;5070250;28;20423;-71
2023/03/08 05:05:35;;;;;;;1999.90;999.90;;;1.10;99.90;;;;;;5070873;28;20450;-73
2023/03/08 05:08:04;;;;;;;1999.90;999.90;;;1.00;99.90;;;;;;5074718;28;20427;-68
2023/03/08 05:10:31;;;;;;;1999.90;999.90;;;1.00;99.90;;;;;;5076413;28;20457;-72
2023/03/08 05:12:59;;;;;;;1999.90;999.90;;;0.90;99.90;;;;;;5071549;28;20436;-72
2023/03/08 05:15:26;;;;;;;1999.90;999.90;;;0.90;99.90;;;;;;5072432;28;20526;-73
2023/03/08 05:17:52;;;;;;;1999.90;999.90;;;0.90;99.90;;;;;;5070237;28;20477;-72
2023/03/08 05:20:20;;;;;;;1999.90;999.90;;;0.90;99.90;;;;;;5071765;28;20428;-71
2023/03/08 05:22:47;;;;;;;1999.90;999.90;;;0.90;99.90;;;;;;5072330;28;20489;-71
2023/03/08 05:25:14;;;;;;;1999.90;999.90;;;1.00;99.90;;;;;;5070823;28;20432;-70
2023/03/08 05:27:40;;;;;;;1999.90;999.90;;;0.90;99.90;;;;;;5071454;28;20435;-71
2023/03/08 05:30:10;;;;;;;1999.90;999.90;;;0.80;99.90;;;;;;5068537;28;20432;-71
2023/03/08 05:32:36;;;;;;;1999.90;999.90;;;0.90;99.90;;;;;;5071588;28;20924;-70
2023/03/08 05:35:03;;;;;;;1999.90;999.90;;;0.90;99.90;;;;;;5070540;28;20489;-72
2023/03/08 05:37:30;;;;;;;1999.90;999.90;;;0.90;99.90;;;;;;5073805;28;20852;-75
2023/03/08 05:39:57;;;;;;;1999.90;999.90;;;0.80;99.90;;;;;;5070364;28;20427;-71
2023/03/08 05:42:23;;;;;;;1999.90;999.90;;;0.80;99.90;;;;;;5072276;28;20431;-73
2023/03/08 05:44:50;;;;;;;1999.90;999.90;;;0.90;99.90;;;;;;5071311;28;20435;-71
2023/03/08 05:47:18;;;;;;;1999.90;999.90;;;0.90;99.90;;;;;;5071104;28;20902;-71
2023/03/08 05:49:45;;;;;;;1999.90;999.90;;;0.80;99.90;;;;;;5075591;28;20493;-70
2023/03/08 05:52:11;;;;;;;1999.90;999.90;;;0.80;99.90;;;;;;5072761;28;20431;-71
2023/03/08 05:54:38;;;;;;;1999.90;999.90;;;1.00;99.90;;;;;;5073313;28;20441;-70
2023/03/08 05:57:05;;;;;;;1999.90;999.90;;;0.90;99.90;;;;;;5070297;28;20431;-71
2023/03/08 05:59:32;;;;;;;1999.90;999.90;;;0.70;99.90;;;;;;5073827;28;20802;-71
2023/03/08 06:01:59;;;;;;;1999.90;999.90;;;0.60;99.90;;;;;;5075225;28;20429;-73
2023/03/08 06:04:27;;;;;;;1999.90;999.90;;;0.60;99.90;;;;;;5069132;28;20427;-71
2023/03/08 06:06:53;;;;;;;1999.90;999.90;;;0.60;99.90;;;;;;5069875;28;20505;-72
2023/03/08 06:09:20;;;;;;;1999.90;999.90;;;0.70;99.90;;;;;;5072342;28;20477;-71
2023/03/08 06:11:47;;;;;;;1999.90;999.90;;;0.90;99.90;;;;;;5077651;28;20747;-71
2023/03/08 06:14:13;;;;;;;1999.90;999.90;;;0.80;99.90;;;;;;5069990;28;20492;-71
2023/03/08 06:16:40;;;;;;;1999.90;999.90;;;0.90;99.90;;;;;;5067903;28;20487;-71
2023/03/08 06:19:07;;;;;;;1999.90;999.90;;;1.00;99.90;;;;;;5073039;28;20461;-72
2023/03/08 06:21:35;;;;;;;1999.90;999.90;;;1.10;99.90;;;;;;5070960;28;20492;-70
2023/03/08 06:24:01;;;;;;;1999.90;999.90;;;1.10;99.90;;;;;;5069962;28;20440;-71
2023/03/08 06:26:28;;;;;;;1999.90;999.90;;;1.00;99.90;;;;;;5070847;28;20431;-70
2023/03/08 06:28:55;;;;;;;1999.90;999.90;;;1.00;99.90;;;;;;5069652;28;20489;-73
2023/03/08 06:31:22;;;;;;;1999.90;999.90;;;1.00;99.90;;;;;;5070361;28;20433;-70
2023/03/08 06:33:48;;;;;;;1999.90;999.90;;;1.00;99.90;;;;;;5070144;28;20485;-72
2023/03/08 06:36:18;;;;;;;1999.90;999.90;;;1.20;99.90;;;;;;5069809;28;20435;-70
2023/03/08 06:38:47;;;;;;;1999.90;999.90;;;1.30;99.90;;;;;;5067819;28;20431;-71
2023/03/08 06:41:16;;;;;;;1999.90;999.90;;;1.40;99.90;;;;;;5070559;28;20975;-71
2023/03/08 06:43:42;;;;;;;1999.90;999.90;;;1.40;99.90;;;;;;5072253;28;20438;-69
2023/03/08 06:46:12;;;;;;;1999.90;999.90;;;1.60;99.90;;;;;;5072621;28;20476;-73
2023/03/08 06:48:40;;;;;;;1999.90;999.90;;;1.60;99.90;;;;;;5073860;28;20692;-71
2023/03/08 06:51:07;;;;;;;1999.90;999.90;;;1.50;99.90;;;;;;5075472;28;20431;-71
2023/03/08 06:53:35;;;;;;;1999.90;999.90;;;1.90;99.90;;;;;;5067065;28;20431;-71
2023/03/08 06:56:05;;;;;;;1999.90;999.90;;;1.60;99.90;;;;;;5071639;28;20442;-75
2023/03/08 06:58:32;;;;;;;1999.90;999.90;;;1.60;99.90;;;;;;5073650;28;20468;-72
2023/03/08 07:00:59;;;;;;;1999.90;999.90;;;1.60;99.90;;;;;;5071091;28;20425;-73
2023/03/08 07:03:27;;;;;;;1999.90;999.90;;;1.70;99.90;;;;;;5068441;28;20977;-71
2023/03/08 07:05:57;;;;;;;1999.90;999.90;;;1.80;99.90;;;;;;5073056;28;20427;-71
2023/03/08 07:08:24;;;;;;;1999.90;999.90;;;2.10;99.90;;;;;;5074200;28;20431;-70
2023/03/08 07:10:51;;;;;;;1999.90;999.90;;;2.20;99.90;;;;;;5074131;28;20435;-71
2023/03/08 07:13:20;;;;;;;1999.90;999.90;;;2.40;99.90;;;;;;5069948;28;20427;-71
2023/03/08 07:15:47;;;;;;;1999.90;999.90;;;2.20;99.90;;;;;;5073380;28;20506;-71
2023/03/08 07:18:14;;;;;;;1999.90;999.90;;;2.20;99.90;;;;;;5073148;28;20953;-68
2023/03/08 07:20:40;;;;;;;1999.90;999.90;;;2.20;99.90;;;;;;5075459;28;20419;-70
2023/03/08 07:23:07;;;;;;;1999.90;999.90;;;2.30;99.90;;;;;;5071885;28;20473;-70
2023/03/08 07:25:34;;;;;;;1999.90;999.90;;;2.50;99.90;;;;;;5072895;28;20431;-67
2023/03/08 07:28:00;;;;;;;1999.90;999.90;;;2.60;99.90;;;;;;5071532;28;20438;-68
2023/03/08 07:30:28;;;;;;;1999.90;999.90;;;2.70;99.90;;;;;;5070555;28;20436;-69
2023/03/08 07:32:55;;;;;;;1999.90;999.90;;;2.80;99.90;;;;;;5071895;28;20484;-65
2023/03/08 07:35:22;;;;;;;1999.90;999.90;;;2.70;99.90;;;;;;5075404;28;21075;-70
2023/03/08 07:37:48;;;;;;;1999.90;999.90;;;2.70;99.90;;;;;;5067864;28;20423;-68
2023/03/08 07:40:16;;;;;;;1999.90;999.90;;;2.70;99.90;;;;;;5067464;28;20543;-69
2023/03/08 07:42:43;;;;;;;1999.90;999.90;;;2.90;99.90;;;;;;5066374;28;20947;-71
2023/03/08 07:45:11;;;;;;;1999.90;999.90;;;2.90;99.90;;;;;;5077528;28;20427;-71
2023/03/08 07:47:40;;;;;;;1999.90;999.90;;;2.90;99.90;;;;;;5070036;28;20498;-70
2023/03/08 07:50:08;;;;;;;1999.90;999.90;;;2.90;99.90;;;;;;5064181;28;20464;-72
2023/03/08 07:52:35;;;;;;;1999.90;999.90;;;3.00;99.90;;;;;;5072748;28;20440;-69
2023/03/08 07:55:02;;;;;;;1999.90;999.90;;;3.00;99.90;;;;;;5064437;28;21011;-70
2023/03/08 07:57:28;;;;;;;1999.90;999.90;;;3.00;99.90;;;;;;5072223;28;20479;-73
2023/03/08 07:59:55;;;;;;;1999.90;999.90;;;3.00;99.90;;;;;;5067769;28;20500;-72
2023/03/08 08:02:22;;;;;;;1999.90;999.90;;;3.10;99.90;;;;;;5072141;28;20464;-70
2023/03/08 08:04:50;;;;;;;1999.90;999.90;;;3.20;99.90;;;;;;5068546;28;20485;-69
2023/03/08 08:07:17;;;;;;;1999.90;999.90;;;3.30;99.90;;;;;;5071239;28;20778;-69
2023/03/08 08:09:44;;;;;;;1999.90;999.90;;;3.50;99.90;;;;;;5071283;28;20429;-72
2023/03/08 08:12:11;;;;;;;1999.90;999.90;;;3.60;99.90;;;;;;5070665;28;21011;-68
2023/03/08 08:14:38;;;;;;;1999.90;999.90;;;3.70;99.90;;;;;;5065651;28;20417;-71
2023/03/08 08:17:05;;;;;;;1999.90;999.90;;;3.90;99.90;;;;;;5053509;28;20491;-73
2023/03/08 08:19:32;;;;;;;1999.90;999.90;;;3.90;99.90;;;;;;5057969;28;21416;-70
2023/03/08 08:22:00;;;;;;;1999.90;999.90;;;3.80;99.90;;;;;;5071856;28;20427;-73
2023/03/08 08:24:27;;;;;;;1999.90;999.90;;;3.70;99.90;;;;;;5073916;28;20435;-72
2023/03/08 08:26:54;;;;;;;1999.90;999.90;;;3.40;99.90;;;;;;5064544;28;20416;-70
2023/03/08 08:29:20;;;;;;;1999.90;999.90;;;3.40;99.90;;;;;;5054454;28;20463;-72
2023/03/08 08:31:47;;;;;;;1999.90;999.90;;;3.50;99.90;;;;;;5054625;28;20555;-74
2023/03/08 08:34:14;;;;;;;1999.90;999.90;;;3.60;99.90;;;;;;5054411;28;20413;-71
2023/03/08 08:36:41;;;;;;;1999.90;999.90;;;3.90;99.90;;;;;;5065749;28;20423;-72
2023/03/08 08:39:09;;;;;;;1999.90;999.90;;;4.00;99.90;;;;;;5054423;28;20459;-72
2023/03/08 08:41:35;;;;;;;1999.90;999.90;;;4.10;99.90;;;;;;5053616;28;20409;-72
2023/03/08 08:44:02;;;;;;;1999.90;999.90;;;4.30;99.90;;;;;;5056176;28;20470;-72
2023/03/08 08:46:29;;;;;;;1999.90;999.90;;;4.20;99.90;;;;;;5071510;28;20493;-71
2023/03/08 08:48:58;;;;;;;1999.90;999.90;;;4.40;99.90;;;;;;5072857;28;20965;-72
2023/03/08 08:51:25;;;;;;;1999.90;999.90;;;4.50;99.90;;;;;;5069177;28;20434;-74
2023/03/08 08:53:52;;;;;;;1999.90;999.90;;;4.50;99.90;;;;;;5071238;28;20477;-70
2023/03/08 08:56:23;;;;;;;1999.90;999.90;;;4.40;99.90;;;;;;5070741;28;20429;-72
2023/03/08 08:58:49;;;;;;;1999.90;999.90;;;4.60;99.90;;;;;;5068041;28;20435;-71
2023/03/08 09:01:18;;;;;;;1999.90;999.90;;;4.60;99.90;;;;;;5068859;28;21173;-71
2023/03/08 09:03:45;;;;;;;1999.90;999.90;;;4.80;99.90;;;;;;5064733;28;20438;-69
2023/03/08 09:06:12;;;;;;;1999.90;999.90;;;4.90;99.90;;;;;;5067332;28;20486;-71
2023/03/08 09:08:39;;;;;;;1999.90;999.90;;;4.90;99.90;;;;;;5069434;28;20489;-70
2023/03/08 09:11:08;;;;;;;1999.90;999.90;;;4.90;99.90;;;;;;5070575;28;20431;-70
2023/03/08 09:13:40;;;;;;;1999.90;999.90;;;4.70;99.90;;;;;;5070330;28;20431;-70
2023/03/08 09:16:07;;;;;;;1999.90;999.90;;;4.70;99.90;;;;;;5069014;28;20518;-70
2023/03/08 09:18:34;;;;;;;1999.90;999.90;;;4.60;99.90;;;;;;5071139;28;20423;-70
2023/03/08 09:21:01;;;;;;;1999.90;999.90;;;4.70;99.90;;;;;;5070653;28;20489;-70
2023/03/08 09:23:28;;;;;;;1999.90;999.90;;;4.40;99.90;;;;;;5071166;28;20449;-70
2023/03/08 09:25:57;;;;;;;1999.90;999.90;;;4.30;99.90;;;;;;5071104;28;20617;-71
2023/03/08 09:28:23;;;;;;;1999.90;999.90;;;4.40;99.90;;;;;;5069740;28;20424;-67
2023/03/08 09:30:52;;;;;;;1999.90;999.90;;;4.50;99.90;;;;;;5071583;28;20501;-73
2023/03/08 09:33:19;;;;;;;1999.90;999.90;;;4.90;99.90;;;;;;5068802;28;20427;-72
2023/03/08 09:35:55;;;;;;;1999.90;999.90;;;5.00;99.90;;;;;;5066798;28;20424;-68
2023/03/08 09:38:22;;;;;;;1999.90;999.90;;;5.10;99.90;;;;;;5070275;28;20955;-70
2023/03/08 09:40:58;;;;;;;1999.90;999.90;;;4.80;99.90;;;;;;5068646;28;20855;-70
2023/03/08 09:43:35;;;;;;;1999.90;999.90;;;4.80;99.90;;;;;;5069018;28;20983;-72
2023/03/08 09:46:04;;;;;;;1999.90;999.90;;;4.80;99.90;;;;;;5063360;28;20494;-70
2023/03/08 09:48:32;;;;;;;1999.90;999.90;;;4.60;99.90;;;;;;5053484;28;20500;-67
2023/03/08 09:51:02;;;;;;;1999.90;999.90;;;4.50;99.90;;;;;;5053895;28;20471;-73
2023/03/08 09:53:34;;;;;;;1999.90;999.90;;;4.70;99.90;;;;;;5065865;28;20431;-70
2023/03/08 09:56:04;;;;;;;1999.90;999.90;;;5.00;99.90;;;;;;5070209;28;20427;-70
2023/03/08 09:58:34;;;;;;;1999.90;999.90;;;5.00;99.90;;;;;;5069376;28;20431;-71
2023/03/08 10:01:14;;;;;;;1999.90;999.90;;;5.10;99.90;;;;;;5071182;28;20431;-74
2023/03/08 10:04:07;;;;;;;1999.90;999.90;;;5.10;99.90;;;;;;5074804;28;20438;-69
2023/03/08 10:06:39;;;;;;;1999.90;999.90;;;5.00;99.90;;;;;;5070072;28;20461;-71
2023/03/08 10:09:20;;;;;;;1999.90;999.90;;;4.90;99.90;;;;;;5069006;28;20485;-71
2023/03/08 10:11:53;;;;;;;1999.90;999.90;;;4.90;99.90;;;;;;5070400;28;20435;-73
2023/03/08 10:14:23;;;;;;;1999.90;999.90;;;4.80;99.90;;;;;;5068848;28;20459;-71
2023/03/08 10:16:56;;;;;;;1999.90;999.90;;;5.00;99.90;;;;;;5068203;28;20431;-73
2023/03/08 10:19:27;;;;;;;1999.90;999.90;;;5.00;99.90;;;;;;5062299;28;20480;-68
2023/03/08 10:21:57;;;;;;;1999.90;999.90;;;5.00;99.90;;;;;;5066917;28;20434;-71
2023/03/08 10:24:29;;;;;;;1999.90;999.90;;;4.90;99.90;;;;;;5062407;28;20436;-73
2023/03/08 10:27:09;;;;;;;1999.90;999.90;;;5.00;99.90;;;;;;5067814;28;20423;-68
2023/03/08 10:29:36;;;;;;;1999.90;999.90;;;4.90;99.90;;;;;;5069878;28;20427;-75
2023/03/08 10:32:06;;;;;;;1999.90;999.90;;;4.70;99.90;;;;;;5068857;28;20489;-71
2023/03/08 10:34:34;;;;;;;1999.90;999.90;;;4.80;99.90;;;;;;5070097;28;20439;-70
2023/03/08 10:37:02;;;;;;;1999.90;999.90;;;4.90;99.90;;;;;;5064778;28;20431;-75
2023/03/08 10:39:29;;;;;;;1999.90;999.90;;;5.00;99.90;;;;;;5064789;28;20441;-71
2023/03/08 10:41:59;;;;;;;1999.90;999.90;;;5.10;99.90;;;;;;5073700;28;20431;-68
2023/03/08 10:44:35;;;;;;;1999.90;999.90;;;4.90;99.90;;;;;;5068667;28;20427;-71
2023/03/08 10:47:18;;;;;;;1999.90;999.90;;;5.00;99.90;;;;;;5067983;28;20963;-70
2023/03/08 10:49:46;;;;;;;1999.90;999.90;;;4.90;99.90;;;;;;5072380;28;20415;-70
2023/03/08 10:52:22;;;;;;;1999.90;999.90;;;4.70;99.90;;;;;;5052359;28;20421;-68
2023/03/08 10:55:01;;;;;;;1999.90;999.90;;;4.70;99.90;;;;;;5079350;22;20413;-65
2023/03/08 10:57:29;;;;;;;1999.90;999.90;;;4.60;99.90;;;;;;5059653;28;20522;-69
2023/03/08 10:59:59;;;;;;;1999.90;999.90;;;4.60;99.90;;;;;;5059652;28;20417;-67
2023/03/08 11:02:27;;;;;;;1999.90;999.90;;;4.90;99.90;;;;;;5049715;28;20511;-69
2023/03/08 11:04:56;;;;;;;1999.90;999.90;;;5.10;99.90;;;;;;5047251;28;20409;-68
2023/03/08 11:07:25;;;;;;;1999.90;999.90;;;4.90;99.90;;;;;;5043988;28;20910;-67
2023/03/08 11:10:04;;;;;;;1999.90;999.90;;;4.70;99.90;;;;;;5046464;28;20432;-69
2023/03/08 11:12:30;;;;;;;1999.90;999.90;;;4.60;99.90;;;;;;5044787;28;20471;-69
2023/03/08 11:14:57;;;;;;;1999.90;999.90;;;4.50;99.90;;;;;;5047771;28;20555;-69
2023/03/08 11:17:29;;;;;;;1999.90;999.90;;;4.40;99.90;;;;;;5041215;28;20467;-67
2023/03/08 11:20:09;;;;;;;1999.90;999.90;;;4.50;99.90;;;;;;5049530;28;20463;-67
2023/03/08 11:22:51;;;;;;;1999.90;999.90;;;4.50;99.90;;;;;;5043866;28;20491;-66
2023/03/08 11:25:38;;;;;;;1999.90;999.90;;;4.50;99.90;;;;;;5036541;28;20423;-66
2023/03/08 11:28:19;;;;;;;1999.90;999.90;;;4.40;99.90;;;;;;5041989;28;20514;-65
2023/03/08 11:30:57;;;;;;;1999.90;999.90;;;4.30;99.90;;;;;;5051215;28;20471;-67
2023/03/08 11:33:47;;;;;;;1999.90;999.90;;;4.10;99.90;;;;;;5052970;28;20417;-66
2023/03/08 11:36:21;;;;;;;1999.90;999.90;;;4.10;99.90;;;;;;5053009;28;20537;-69
2023/03/08 11:38:56;;;;;;;1999.90;999.90;;;4.00;99.90;;;;;;5052035;28;20457;-66
2023/03/08 11:41:30;;;;;;;1999.90;999.90;;;3.70;99.90;;;;;;5049673;28;20919;-67
2023/03/08 11:44:19;;;;;;;1999.90;999.90;;;3.40;99.90;;;;;;5044407;28;20477;-66
2023/03/08 11:46:59;;;;;;;1999.90;999.90;;;3.30;99.90;;;;;;5050758;28;20428;-65
2023/03/08 11:49:48;;;;;;;1999.90;999.90;;;3.40;99.90;;;;;;5046173;28;20813;-66
2023/03/08 11:52:28;;;;;;;1999.90;999.90;;;3.30;99.90;;;;;;5046373;28;20480;-69
2023/03/08 11:55:07;;;;;;;1999.90;999.90;;;3.20;99.90;;;;;;5050799;28;20531;-64
2023/03/08 11:57:37;;;;;;;1999.90;999.90;;;3.10;99.90;;;;;;5052706;28;20469;-68
2023/03/08 12:00:11;;;;;;;1999.90;999.90;;;3.40;99.90;;;;;;5047935;28;20850;-66
2023/03/08 12:02:42;;;;;;;1999.90;999.90;;;3.60;99.90;;;;;;5046703;28;20467;-66
2023/03/08 12:05:16;;;;;;;1999.90;999.90;;;3.40;99.90;;;;;;5045969;28;20508;-66
2023/03/08 12:07:47;;;;;;;1999.90;999.90;;;3.60;99.90;;;;;;5045049;28;20483;-67
2023/03/08 12:10:20;;;;;;;1999.90;999.90;;;3.60;99.90;;;;;;5048903;28;20437;-66
2023/03/08 12:12:52;;;;;;;1999.90;999.90;;;3.70;99.90;;;;;;5048816;28;20491;-65
2023/03/08 12:15:28;;;;;;;1999.90;999.90;;;3.80;99.90;;;;;;5049565;28;20988;-67
2023/03/08 12:18:01;;;;;;;1999.90;999.90;;;3.90;99.90;;;;;;5049059;28;20426;-67
2023/03/08 12:20:35;;;;;;;1999.90;999.90;;;4.10;99.90;;;;;;5049629;28;20437;-66